sensor_id;sensor_type;location;lat;lon;timestamp;temperature;humidity
48912;DHT22;34722;52.108;5.044;2023-06-10T00:05:17;20.10;99.90
48912;DHT22;34722;52.108;5.044;2023-06-10T00:07:57;20.10;99.90
48912;DHT22;34722;52.108;5.044;2023-06-10T00:10:30;20.10;99.90
48912;DHT22;34722;52.108;5.044;2023-06-10T00:12:57;20.10;99.90
48912;DHT22;34722;52.108;5.044;2023-06-10T00:15:28;20.00;99.90
48912;DHT22;34722;52.108;5.044;2023-06-10T00:18:14;20.00;99.90
48912;DHT22;34722;52.108;5.044;2023-06-10T00:24:06;19.90;99.90
48912;DHT22;34722;52.108;5.044;2023-06-10T00:30:25;19.70;99.90
48912;DHT22;34722;52.108;5.044;2023-06-10T00:33:21;19.70;99.90
48912;DHT22;34722;52.108;5.044;2023-06-10T00:45:34;19.40;99.90
48912;DHT22;34722;52.108;5.044;2023-06-10T00:51:26;19.30;1.00
48912;DHT22;34722;52.108;5.044;2023-06-10T00:54:26;19.30;1.00
48912;DHT22;34722;52.108;5.044;2023-06-10T00:57:22;19.20;1.00
48912;DHT22;34722;52.108;5.044;2023-06-10T01:00:27;19.20;1.00
48912;DHT22;34722;52.108;5.044;2023-06-10T01:04:10;19.10;1.00
48912;DHT22;34722;52.108;5.044;2023-06-10T01:20:08;19.10;1.00
48912;DHT22;34722;52.108;5.044;2023-06-10T01:22:41;19.10;1.00
48912;DHT22;34722;52.108;5.044;2023-06-10T01:31:09;19.10;99.90
48912;DHT22;34722;52.108;5.044;2023-06-10T01:34:16;19.10;99.90
48912;DHT22;34722;52.108;5.044;2023-06-10T01:37:06;19.00;99.90
48912;DHT22;34722;52.108;5.044;2023-06-10T01:39:38;19.10;99.90
48912;DHT22;34722;52.108;5.044;2023-06-10T01:42:23;19.10;99.90
48912;DHT22;34722;52.108;5.044;2023-06-10T01:45:24;19.10;99.90
48912;DHT22;34722;52.108;5.044;2023-06-10T01:47:58;19.00;99.90
48912;DHT22;34722;52.108;5.044;2023-06-10T01:50:37;18.90;99.90
48912;DHT22;34722;52.108;5.044;2023-06-10T01:57:01;18.80;99.90
48912;DHT22;34722;52.108;5.044;2023-06-10T01:59:46;18.80;99.90
48912;DHT22;34722;52.108;5.044;2023-06-10T02:02:42;18.70;99.90
48912;DHT22;34722;52.108;5.044;2023-06-10T02:08:59;18.70;99.90
48912;DHT22;34722;52.108;5.044;2023-06-10T02:11:40;18.60;99.90
48912;DHT22;34722;52.108;5.044;2023-06-10T02:14:25;18.60;99.90
48912;DHT22;34722;52.108;5.044;2023-06-10T02:17:01;18.50;99.90
48912;DHT22;34722;52.108;5.044;2023-06-10T02:19:30;18.60;99.90
48912;DHT22;34722;52.108;5.044;2023-06-10T02:22:05;18.60;99.90
48912;DHT22;34722;52.108;5.044;2023-06-10T02:24:36;18.60;99.90
48912;DHT22;34722;52.108;5.044;2023-06-10T02:27:06;18.50;99.90
48912;DHT22;34722;52.108;5.044;2023-06-10T02:29:35;18.50;99.90
48912;DHT22;34722;52.108;5.044;2023-06-10T02:32:05;18.50;99.90
48912;DHT22;34722;52.108;5.044;2023-06-10T02:34:33;18.40;99.90
48912;DHT22;34722;52.108;5.044;2023-06-10T02:37:15;18.40;99.90
48912;DHT22;34722;52.108;5.044;2023-06-10T02:39:44;18.40;99.90
48912;DHT22;34722;52.108;5.044;2023-06-10T02:42:11;18.40;99.90
48912;DHT22;34722;52.108;5.044;2023-06-10T02:44:37;18.40;99.90
48912;DHT22;34722;52.108;5.044;2023-06-10T02:47:02;18.40;99.90
48912;DHT22;34722;52.108;5.044;2023-06-10T02:49:28;18.30;99.90
48912;DHT22;34722;52.108;5.044;2023-06-10T02:51:54;18.30;99.90
48912;DHT22;34722;52.108;5.044;2023-06-10T02:54:20;18.30;99.90
48912;DHT22;34722;52.108;5.044;2023-06-10T02:56:46;18.20;99.90
48912;DHT22;34722;52.108;5.044;2023-06-10T02:59:13;18.20;99.90
48912;DHT22;34722;52.108;5.044;2023-06-10T03:01:39;18.10;99.90
48912;DHT22;34722;52.108;5.044;2023-06-10T03:04:06;18.10;99.90
48912;DHT22;34722;52.108;5.044;2023-06-10T03:06:32;18.10;99.90
48912;DHT22;34722;52.108;5.044;2023-06-10T03:09:01;18.10;1.00
48912;DHT22;34722;52.108;5.044;2023-06-10T03:11:27;18.00;1.00
48912;DHT22;34722;52.108;5.044;2023-06-10T03:13:54;18.00;1.00
48912;DHT22;34722;52.108;5.044;2023-06-10T03:16:22;18.00;1.00
48912;DHT22;34722;52.108;5.044;2023-06-10T03:18:53;17.90;1.00
48912;DHT22;34722;52.108;5.044;2023-06-10T03:21:25;17.90;1.00
48912;DHT22;34722;52.108;5.044;2023-06-10T03:23:59;17.90;1.00
48912;DHT22;34722;52.108;5.044;2023-06-10T03:26:32;17.90;1.00
48912;DHT22;34722;52.108;5.044;2023-06-10T03:31:48;17.80;1.00
48912;DHT22;34722;52.108;5.044;2023-06-10T03:34:15;17.90;21.00
48912;DHT22;34722;52.108;5.044;2023-06-10T03:36:49;17.80;72.90
48912;DHT22;34722;52.108;5.044;2023-06-10T03:39:32;17.90;99.20
48912;DHT22;34722;52.108;5.044;2023-06-10T03:41:58;17.90;99.90
48912;DHT22;34722;52.108;5.044;2023-06-10T03:44:24;17.90;99.90
48912;DHT22;34722;52.108;5.044;2023-06-10T03:47:23;17.90;99.90
48912;DHT22;34722;52.108;5.044;2023-06-10T03:49:50;17.90;99.90
48912;DHT22;34722;52.108;5.044;2023-06-10T03:52:17;17.90;99.90
48912;DHT22;34722;52.108;5.044;2023-06-10T03:54:43;17.90;99.90
48912;DHT22;34722;52.108;5.044;2023-06-10T03:57:11;18.00;99.90
48912;DHT22;34722;52.108;5.044;2023-06-10T03:59:47;18.00;99.90
48912;DHT22;34722;52.108;5.044;2023-06-10T04:02:28;18.00;99.90
48912;DHT22;34722;52.108;5.044;2023-06-10T04:05:14;18.10;99.90
48912;DHT22;34722;52.108;5.044;2023-06-10T04:07:40;18.10;99.90
48912;DHT22;34722;52.108;5.044;2023-06-10T04:10:10;18.10;99.90
48912;DHT22;34722;52.108;5.044;2023-06-10T04:13:24;18.20;99.90
48912;DHT22;34722;52.108;5.044;2023-06-10T04:15:56;18.20;99.90
48912;DHT22;34722;52.108;5.044;2023-06-10T04:18:25;18.40;99.90
48912;DHT22;34722;52.108;5.044;2023-06-10T04:21:03;18.60;99.90
48912;DHT22;34722;52.108;5.044;2023-06-10T04:23:38;18.60;99.90
48912;DHT22;34722;52.108;5.044;2023-06-10T04:26:16;18.60;99.90
48912;DHT22;34722;52.108;5.044;2023-06-10T04:28:57;18.80;99.90
48912;DHT22;34722;52.108;5.044;2023-06-10T04:31:32;18.90;99.90
48912;DHT22;34722;52.108;5.044;2023-06-10T04:34:16;19.00;99.90
48912;DHT22;34722;52.108;5.044;2023-06-10T04:51:48;18.70;99.90
48912;DHT22;34722;52.108;5.044;2023-06-10T04:54:38;18.60;99.90
48912;DHT22;34722;52.108;5.044;2023-06-10T04:57:33;18.70;99.90
48912;DHT22;34722;52.108;5.044;2023-06-10T05:00:17;18.80;99.90
48912;DHT22;34722;52.108;5.044;2023-06-10T05:03:27;18.80;99.90
48912;DHT22;34722;52.108;5.044;2023-06-10T05:06:01;18.90;99.90
48912;DHT22;34722;52.108;5.044;2023-06-10T05:08:30;19.00;99.90
48912;DHT22;34722;52.108;5.044;2023-06-10T05:11:01;19.00;99.90
48912;DHT22;34722;52.108;5.044;2023-06-10T05:13:30;19.00;99.90
48912;DHT22;34722;52.108;5.044;2023-06-10T05:15:59;19.10;99.90
48912;DHT22;34722;52.108;5.044;2023-06-10T05:21:56;19.20;99.90
48912;DHT22;34722;52.108;5.044;2023-06-10T05:41:21;20.20;99.90
48912;DHT22;34722;52.108;5.044;2023-06-10T05:43:51;20.50;1.00
48912;DHT22;34722;52.108;5.044;2023-06-10T05:46:29;21.20;1.00
48912;DHT22;34722;52.108;5.044;2023-06-10T06:43:34;30.00;99.90
48912;DHT22;34722;52.108;5.044;2023-06-10T06:46:59;29.60;99.90
48912;DHT22;34722;52.108;5.044;2023-06-10T06:49:38;28.80;99.90
48912;DHT22;34722;52.108;5.044;2023-06-10T06:52:04;29.10;99.90
48912;DHT22;34722;52.108;5.044;2023-06-10T06:54:40;28.70;99.90
48912;DHT22;34722;52.108;5.044;2023-06-10T07:01:01;28.40;99.90
48912;DHT22;34722;52.108;5.044;2023-06-10T07:03:28;28.80;99.90
48912;DHT22;34722;52.108;5.044;2023-06-10T07:06:12;29.50;99.90
48912;DHT22;34722;52.108;5.044;2023-06-10T07:08:41;30.20;99.90
48912;DHT22;34722;52.108;5.044;2023-06-10T07:11:10;30.20;99.90
48912;DHT22;34722;52.108;5.044;2023-06-10T07:13:36;30.30;99.90
48912;DHT22;34722;52.108;5.044;2023-06-10T07:16:02;30.90;99.90
48912;DHT22;34722;52.108;5.044;2023-06-10T07:21:56;31.40;99.90
48912;DHT22;34722;52.108;5.044;2023-06-10T07:24:22;32.00;99.90
48912;DHT22;34722;52.108;5.044;2023-06-10T07:26:48;32.30;99.90
48912;DHT22;34722;52.108;5.044;2023-06-10T07:29:31;32.80;99.90
48912;DHT22;34722;52.108;5.044;2023-06-10T07:32:26;32.40;99.90
48912;DHT22;34722;52.108;5.044;2023-06-10T07:34:51;33.20;99.90
48912;DHT22;34722;52.108;5.044;2023-06-10T07:37:26;32.50;99.90
48912;DHT22;34722;52.108;5.044;2023-06-10T07:43:18;32.80;99.90
48912;DHT22;34722;52.108;5.044;2023-06-10T07:46:05;33.70;99.90
48912;DHT22;34722;52.108;5.044;2023-06-10T07:49:07;32.20;87.80
48912;DHT22;34722;52.108;5.044;2023-06-10T07:51:46;33.10;96.30
48912;DHT22;34722;52.108;5.044;2023-06-10T07:54:21;33.40;88.60
48912;DHT22;34722;52.108;5.044;2023-06-10T08:03:51;33.50;59.70
48912;DHT22;34722;52.108;5.044;2023-06-10T08:09:53;34.40;58.60
48912;DHT22;34722;52.108;5.044;2023-06-10T08:21:59;35.20;39.70
48912;DHT22;34722;52.108;5.044;2023-06-10T08:24:35;34.50;24.60
48912;DHT22;34722;52.108;5.044;2023-06-10T08:27:01;34.60;15.50
48912;DHT22;34722;52.108;5.044;2023-06-10T08:29:36;34.80;15.00
48912;DHT22;34722;52.108;5.044;2023-06-10T08:32:11;35.10;14.10
48912;DHT22;34722;52.108;5.044;2023-06-10T08:34:39;34.70;7.30
48912;DHT22;34722;52.108;5.044;2023-06-10T08:37:09;35.00;4.00
48912;DHT22;34722;52.108;5.044;2023-06-10T08:39:35;35.70;8.30
48912;DHT22;34722;52.108;5.044;2023-06-10T08:42:24;35.90;7.30
48912;DHT22;34722;52.108;5.044;2023-06-10T08:44:55;35.20;1.80
48912;DHT22;34722;52.108;5.044;2023-06-10T08:47:23;35.50;1.90
48912;DHT22;34722;52.108;5.044;2023-06-10T08:49:51;36.30;4.40
48912;DHT22;34722;52.108;5.044;2023-06-10T08:52:22;35.60;5.00
48912;DHT22;34722;52.108;5.044;2023-06-10T08:55:11;36.10;1.00
48912;DHT22;34722;52.108;5.044;2023-06-10T08:57:41;37.10;1.00
48912;DHT22;34722;52.108;5.044;2023-06-10T09:00:08;38.00;1.00
48912;DHT22;34722;52.108;5.044;2023-06-10T09:02:34;37.20;1.00
48912;DHT22;34722;52.108;5.044;2023-06-10T09:05:07;37.50;1.00
48912;DHT22;34722;52.108;5.044;2023-06-10T09:07:37;37.40;1.00
48912;DHT22;34722;52.108;5.044;2023-06-10T09:10:07;36.90;1.00
48912;DHT22;34722;52.108;5.044;2023-06-10T09:16:11;35.90;1.00
48912;DHT22;34722;52.108;5.044;2023-06-10T09:18:53;36.60;1.00
48912;DHT22;34722;52.108;5.044;2023-06-10T09:28:23;36.50;1.00
48912;DHT22;34722;52.108;5.044;2023-06-10T09:31:24;36.50;1.00
48912;DHT22;34722;52.108;5.044;2023-06-10T09:36:59;37.00;1.00
48912;DHT22;34722;52.108;5.044;2023-06-10T09:54:38;35.80;1.00
48912;DHT22;34722;52.108;5.044;2023-06-10T09:57:10;36.50;1.00
48912;DHT22;34722;52.108;5.044;2023-06-10T10:00:09;36.70;1.00
48912;DHT22;34722;52.108;5.044;2023-06-10T10:03:04;37.90;1.00
48912;DHT22;34722;52.108;5.044;2023-06-10T10:05:32;38.00;1.00
48912;DHT22;34722;52.108;5.044;2023-06-10T10:08:04;37.20;1.00
48912;DHT22;34722;52.108;5.044;2023-06-10T10:10:55;36.10;1.00
48912;DHT22;34722;52.108;5.044;2023-06-10T10:13:44;36.90;1.00
48912;DHT22;34722;52.108;5.044;2023-06-10T10:16:40;36.00;1.00
48912;DHT22;34722;52.108;5.044;2023-06-10T10:19:37;37.10;1.00
48912;DHT22;34722;52.108;5.044;2023-06-10T10:25:54;37.00;1.00
48912;DHT22;34722;52.108;5.044;2023-06-10T10:28:24;36.20;1.00
48912;DHT22;34722;52.108;5.044;2023-06-10T10:30:59;37.20;1.00
48912;DHT22;34722;52.108;5.044;2023-06-10T10:33:49;37.40;1.00
48912;DHT22;34722;52.108;5.044;2023-06-10T10:36:16;37.30;1.00
48912;DHT22;34722;52.108;5.044;2023-06-10T10:38:43;36.20;1.00
48912;DHT22;34722;52.108;5.044;2023-06-10T10:41:11;35.40;1.00
48912;DHT22;34722;52.108;5.044;2023-06-10T10:43:38;35.80;1.00
48912;DHT22;34722;52.108;5.044;2023-06-10T10:46:21;36.00;1.00
48912;DHT22;34722;52.108;5.044;2023-06-10T10:48:54;36.30;1.00
48912;DHT22;34722;52.108;5.044;2023-06-10T10:51:26;36.90;1.00
48912;DHT22;34722;52.108;5.044;2023-06-10T10:54:14;37.30;1.00
48912;DHT22;34722;52.108;5.044;2023-06-10T10:57:20;37.80;1.00
48912;DHT22;34722;52.108;5.044;2023-06-10T10:59:53;37.70;1.00
48912;DHT22;34722;52.108;5.044;2023-06-10T11:02:44;36.50;1.00
48912;DHT22;34722;52.108;5.044;2023-06-10T11:05:15;36.90;1.00
48912;DHT22;34722;52.108;5.044;2023-06-10T11:07:53;37.70;1.00
48912;DHT22;34722;52.108;5.044;2023-06-10T11:10:40;37.00;1.00
48912;DHT22;34722;52.108;5.044;2023-06-10T11:16:33;37.90;1.00
48912;DHT22;34722;52.108;5.044;2023-06-10T11:19:06;38.70;1.00
48912;DHT22;34722;52.108;5.044;2023-06-10T11:22:02;38.60;1.00
48912;DHT22;34722;52.108;5.044;2023-06-10T11:27:37;38.70;1.00
48912;DHT22;34722;52.108;5.044;2023-06-10T11:35:50;37.70;1.00
48912;DHT22;34722;52.108;5.044;2023-06-10T11:42:14;38.40;1.00
48912;DHT22;34722;52.108;5.044;2023-06-10T11:44:59;37.80;1.00
48912;DHT22;34722;52.108;5.044;2023-06-10T11:48:00;37.70;1.00
48912;DHT22;34722;52.108;5.044;2023-06-10T11:50:33;37.50;1.00
48912;DHT22;34722;52.108;5.044;2023-06-10T11:59:09;38.60;1.00
48912;DHT22;34722;52.108;5.044;2023-06-10T12:11:49;36.90;1.00
48912;DHT22;34722;52.108;5.044;2023-06-10T12:23:10;35.60;1.00
48912;DHT22;34722;52.108;5.044;2023-06-10T12:32:56;36.10;1.00
48912;DHT22;34722;52.108;5.044;2023-06-10T12:35:30;36.10;1.00
48912;DHT22;34722;52.108;5.044;2023-06-10T12:38:54;35.30;1.00
48912;DHT22;34722;52.108;5.044;2023-06-10T12:41:29;35.50;1.00
48912;DHT22;34722;52.108;5.044;2023-06-10T12:44:06;35.10;1.00
48912;DHT22;34722;52.108;5.044;2023-06-10T12:46:55;34.30;1.00
48912;DHT22;34722;52.108;5.044;2023-06-10T12:49:34;33.60;1.00
48912;DHT22;34722;52.108;5.044;2023-06-10T12:52:39;33.10;1.00
48912;DHT22;34722;52.108;5.044;2023-06-10T12:55:25;33.10;1.00
48912;DHT22;34722;52.108;5.044;2023-06-10T12:57:52;32.70;1.00
48912;DHT22;34722;52.108;5.044;2023-06-10T13:00:18;32.50;1.00
48912;DHT22;34722;52.108;5.044;2023-06-10T13:02:45;32.90;1.00
48912;DHT22;34722;52.108;5.044;2023-06-10T13:05:22;32.90;1.00
48912;DHT22;34722;52.108;5.044;2023-06-10T13:07:48;33.20;1.00
48912;DHT22;34722;52.108;5.044;2023-06-10T13:10:18;32.90;1.00
48912;DHT22;34722;52.108;5.044;2023-06-10T13:15:47;32.30;1.00
48912;DHT22;34722;52.108;5.044;2023-06-10T13:18:18;32.40;1.00
48912;DHT22;34722;52.108;5.044;2023-06-10T13:20:45;32.90;1.00
48912;DHT22;34722;52.108;5.044;2023-06-10T13:23:13;32.70;1.00
48912;DHT22;34722;52.108;5.044;2023-06-10T13:25:43;32.80;1.00
48912;DHT22;34722;52.108;5.044;2023-06-10T13:28:22;32.70;1.00
48912;DHT22;34722;52.108;5.044;2023-06-10T13:30:54;32.80;1.00
48912;DHT22;34722;52.108;5.044;2023-06-10T13:33:26;32.90;1.00
48912;DHT22;34722;52.108;5.044;2023-06-10T13:36:01;32.70;1.00
48912;DHT22;34722;52.108;5.044;2023-06-10T13:38:57;32.70;1.00
48912;DHT22;34722;52.108;5.044;2023-06-10T13:41:26;32.70;1.00
48912;DHT22;34722;52.108;5.044;2023-06-10T13:43:54;32.90;1.00
48912;DHT22;34722;52.108;5.044;2023-06-10T13:46:21;32.80;1.00
48912;DHT22;34722;52.108;5.044;2023-06-10T13:49:01;33.10;1.00
48912;DHT22;34722;52.108;5.044;2023-06-10T13:51:37;33.10;1.00
48912;DHT22;34722;52.108;5.044;2023-06-10T13:54:06;33.10;1.00
48912;DHT22;34722;52.108;5.044;2023-06-10T13:56:46;32.80;1.00
48912;DHT22;34722;52.108;5.044;2023-06-10T13:59:12;32.50;1.00
48912;DHT22;34722;52.108;5.044;2023-06-10T14:01:38;32.60;1.00
48912;DHT22;34722;52.108;5.044;2023-06-10T14:04:07;33.00;1.00
48912;DHT22;34722;52.108;5.044;2023-06-10T14:06:37;33.30;1.00
48912;DHT22;34722;52.108;5.044;2023-06-10T14:09:09;33.30;1.00
48912;DHT22;34722;52.108;5.044;2023-06-10T14:11:35;33.30;1.00
48912;DHT22;34722;52.108;5.044;2023-06-10T14:17:48;32.50;1.00
48912;DHT22;34722;52.108;5.044;2023-06-10T14:20:21;32.20;1.00
48912;DHT22;34722;52.108;5.044;2023-06-10T14:22:50;32.30;1.00
48912;DHT22;34722;52.108;5.044;2023-06-10T14:25:19;32.60;1.00
48912;DHT22;34722;52.108;5.044;2023-06-10T14:27:45;32.60;1.00
48912;DHT22;34722;52.108;5.044;2023-06-10T14:30:31;32.40;1.00
48912;DHT22;34722;52.108;5.044;2023-06-10T14:32:57;32.40;1.00
48912;DHT22;34722;52.108;5.044;2023-06-10T14:35:25;31.70;1.00
48912;DHT22;34722;52.108;5.044;2023-06-10T14:38:04;31.40;1.00
48912;DHT22;34722;52.108;5.044;2023-06-10T14:40:38;31.60;1.00
48912;DHT22;34722;52.108;5.044;2023-06-10T14:43:07;31.60;1.00
48912;DHT22;34722;52.108;5.044;2023-06-10T14:45:43;31.90;1.00
48912;DHT22;34722;52.108;5.044;2023-06-10T14:48:11;31.90;1.00
48912;DHT22;34722;52.108;5.044;2023-06-10T14:51:03;32.10;1.00
48912;DHT22;34722;52.108;5.044;2023-06-10T14:53:27;31.80;1.00
48912;DHT22;34722;52.108;5.044;2023-06-10T14:55:53;32.00;1.00
48912;DHT22;34722;52.108;5.044;2023-06-10T14:58:48;31.90;1.00
48912;DHT22;34722;52.108;5.044;2023-06-10T15:01:16;32.00;1.00
48912;DHT22;34722;52.108;5.044;2023-06-10T15:03:45;32.10;1.00
48912;DHT22;34722;52.108;5.044;2023-06-10T15:06:17;31.90;1.00
48912;DHT22;34722;52.108;5.044;2023-06-10T15:08:46;32.20;1.00
48912;DHT22;34722;52.108;5.044;2023-06-10T15:11:14;32.00;1.00
48912;DHT22;34722;52.108;5.044;2023-06-10T15:13:43;31.80;1.00
48912;DHT22;34722;52.108;5.044;2023-06-10T15:16:08;31.80;1.00
48912;DHT22;34722;52.108;5.044;2023-06-10T15:18:38;31.50;1.00
48912;DHT22;34722;52.108;5.044;2023-06-10T15:21:06;30.90;1.00
48912;DHT22;34722;52.108;5.044;2023-06-10T15:23:32;30.60;1.00
48912;DHT22;34722;52.108;5.044;2023-06-10T15:26:00;30.50;1.00
48912;DHT22;34722;52.108;5.044;2023-06-10T15:28:30;30.50;1.00
48912;DHT22;34722;52.108;5.044;2023-06-10T15:31:13;30.60;1.00
48912;DHT22;34722;52.108;5.044;2023-06-10T15:33:42;30.80;1.00
48912;DHT22;34722;52.108;5.044;2023-06-10T15:36:07;31.00;1.00
48912;DHT22;34722;52.108;5.044;2023-06-10T15:38:42;31.00;1.00
48912;DHT22;34722;52.108;5.044;2023-06-10T15:41:14;31.10;1.00
48912;DHT22;34722;52.108;5.044;2023-06-10T15:43:43;31.20;1.00
48912;DHT22;34722;52.108;5.044;2023-06-10T15:46:09;31.30;1.00
48912;DHT22;34722;52.108;5.044;2023-06-10T15:48:37;31.30;1.00
48912;DHT22;34722;52.108;5.044;2023-06-10T15:51:03;31.30;1.00
48912;DHT22;34722;52.108;5.044;2023-06-10T15:53:38;31.10;1.00
48912;DHT22;34722;52.108;5.044;2023-06-10T15:56:09;31.10;1.00
48912;DHT22;34722;52.108;5.044;2023-06-10T15:58:34;30.90;1.00
48912;DHT22;34722;52.108;5.044;2023-06-10T16:01:00;30.80;1.00
48912;DHT22;34722;52.108;5.044;2023-06-10T16:03:26;30.80;1.00
48912;DHT22;34722;52.108;5.044;2023-06-10T16:05:52;30.90;1.00
48912;DHT22;34722;52.108;5.044;2023-06-10T16:08:18;30.90;1.00
48912;DHT22;34722;52.108;5.044;2023-06-10T16:10:49;30.70;1.00
48912;DHT22;34722;52.108;5.044;2023-06-10T16:13:15;30.70;1.00
48912;DHT22;34722;52.108;5.044;2023-06-10T16:15:48;30.70;1.00
48912;DHT22;34722;52.108;5.044;2023-06-10T16:18:13;30.70;1.00
48912;DHT22;34722;52.108;5.044;2023-06-10T16:21:15;30.70;1.00
48912;DHT22;34722;52.108;5.044;2023-06-10T16:26:25;30.50;1.00
48912;DHT22;34722;52.108;5.044;2023-06-10T16:28:50;30.60;1.00
48912;DHT22;34722;52.108;5.044;2023-06-10T16:31:32;30.40;1.00
48912;DHT22;34722;52.108;5.044;2023-06-10T16:34:00;30.20;1.00
48912;DHT22;34722;52.108;5.044;2023-06-10T16:36:34;30.20;1.00
48912;DHT22;34722;52.108;5.044;2023-06-10T16:41:56;30.00;1.00
48912;DHT22;34722;52.108;5.044;2023-06-10T16:44:25;30.00;1.00
48912;DHT22;34722;52.108;5.044;2023-06-10T16:46:51;30.00;1.00
48912;DHT22;34722;52.108;5.044;2023-06-10T16:49:16;30.00;1.00
48912;DHT22;34722;52.108;5.044;2023-06-10T16:51:44;30.00;1.00
48912;DHT22;34722;52.108;5.044;2023-06-10T16:54:10;30.00;1.00
48912;DHT22;34722;52.108;5.044;2023-06-10T16:56:36;29.90;1.00
48912;DHT22;34722;52.108;5.044;2023-06-10T16:59:02;29.80;1.00
48912;DHT22;34722;52.108;5.044;2023-06-10T17:01:28;29.80;1.00
48912;DHT22;34722;52.108;5.044;2023-06-10T17:03:54;29.80;1.00
48912;DHT22;34722;52.108;5.044;2023-06-10T17:06:20;29.80;1.00
48912;DHT22;34722;52.108;5.044;2023-06-10T17:08:45;29.60;1.00
48912;DHT22;34722;52.108;5.044;2023-06-10T17:11:16;29.60;1.00
48912;DHT22;34722;52.108;5.044;2023-06-10T17:16:52;29.40;1.00
48912;DHT22;34722;52.108;5.044;2023-06-10T17:19:18;29.50;1.00
48912;DHT22;34722;52.108;5.044;2023-06-10T17:21:47;29.40;1.00
48912;DHT22;34722;52.108;5.044;2023-06-10T17:24:13;29.30;1.00
48912;DHT22;34722;52.108;5.044;2023-06-10T17:26:42;29.20;1.00
48912;DHT22;34722;52.108;5.044;2023-06-10T17:29:08;29.20;1.00
48912;DHT22;34722;52.108;5.044;2023-06-10T17:31:39;29.20;1.00
48912;DHT22;34722;52.108;5.044;2023-06-10T17:34:04;29.20;1.00
48912;DHT22;34722;52.108;5.044;2023-06-10T17:36:33;29.10;1.00
48912;DHT22;34722;52.108;5.044;2023-06-10T17:39:03;29.00;1.00
48912;DHT22;34722;52.108;5.044;2023-06-10T17:41:32;28.90;1.00
48912;DHT22;34722;52.108;5.044;2023-06-10T17:43:57;28.90;1.00
48912;DHT22;34722;52.108;5.044;2023-06-10T17:46:32;28.80;1.00
48912;DHT22;34722;52.108;5.044;2023-06-10T17:48:58;28.70;1.00
48912;DHT22;34722;52.108;5.044;2023-06-10T17:51:24;28.70;1.00
48912;DHT22;34722;52.108;5.044;2023-06-10T17:53:49;28.70;1.00
48912;DHT22;34722;52.108;5.044;2023-06-10T17:56:15;28.60;1.00
48912;DHT22;34722;52.108;5.044;2023-06-10T17:58:45;28.60;1.00
48912;DHT22;34722;52.108;5.044;2023-06-10T18:01:10;28.50;1.00
48912;DHT22;34722;52.108;5.044;2023-06-10T18:03:36;28.40;1.00
48912;DHT22;34722;52.108;5.044;2023-06-10T18:06:02;28.40;1.00
48912;DHT22;34722;52.108;5.044;2023-06-10T18:08:29;28.40;1.00
48912;DHT22;34722;52.108;5.044;2023-06-10T18:10:54;28.20;1.00
48912;DHT22;34722;52.108;5.044;2023-06-10T18:13:20;28.10;1.00
48912;DHT22;34722;52.108;5.044;2023-06-10T18:15:46;28.10;1.00
48912;DHT22;34722;52.108;5.044;2023-06-10T18:18:12;28.10;1.00
48912;DHT22;34722;52.108;5.044;2023-06-10T18:20:37;27.90;1.00
48912;DHT22;34722;52.108;5.044;2023-06-10T18:23:03;27.80;1.00
48912;DHT22;34722;52.108;5.044;2023-06-10T18:25:29;27.70;1.00
48912;DHT22;34722;52.108;5.044;2023-06-10T18:27:54;27.70;1.00
48912;DHT22;34722;52.108;5.044;2023-06-10T18:30:20;27.60;1.00
48912;DHT22;34722;52.108;5.044;2023-06-10T18:32:46;27.60;1.00
48912;DHT22;34722;52.108;5.044;2023-06-10T18:35:15;27.50;1.00
48912;DHT22;34722;52.108;5.044;2023-06-10T18:37:40;27.40;1.00
48912;DHT22;34722;52.108;5.044;2023-06-10T18:40:06;27.40;1.00
48912;DHT22;34722;52.108;5.044;2023-06-10T18:42:32;27.30;1.00
48912;DHT22;34722;52.108;5.044;2023-06-10T18:44:58;27.20;1.00
48912;DHT22;34722;52.108;5.044;2023-06-10T18:47:23;27.10;1.00
48912;DHT22;34722;52.108;5.044;2023-06-10T18:49:49;27.00;1.00
48912;DHT22;34722;52.108;5.044;2023-06-10T18:52:18;27.00;1.00
48912;DHT22;34722;52.108;5.044;2023-06-10T18:54:44;26.90;1.00
48912;DHT22;34722;52.108;5.044;2023-06-10T18:57:10;26.80;1.00
48912;DHT22;34722;52.108;5.044;2023-06-10T18:59:36;26.70;1.00
48912;DHT22;34722;52.108;5.044;2023-06-10T19:02:01;26.70;1.00
48912;DHT22;34722;52.108;5.044;2023-06-10T19:04:48;26.80;1.00
48912;DHT22;34722;52.108;5.044;2023-06-10T19:07:20;26.80;1.00
48912;DHT22;34722;52.108;5.044;2023-06-10T19:10:23;26.70;1.00
48912;DHT22;34722;52.108;5.044;2023-06-10T19:15:55;26.30;1.00
48912;DHT22;34722;52.108;5.044;2023-06-10T19:21:01;26.00;1.00
48912;DHT22;34722;52.108;5.044;2023-06-10T19:23:29;25.90;1.00
48912;DHT22;34722;52.108;5.044;2023-06-10T19:25:55;25.70;1.00
48912;DHT22;34722;52.108;5.044;2023-06-10T19:28:28;25.70;1.00
48912;DHT22;34722;52.108;5.044;2023-06-10T19:34:13;25.40;1.00
48912;DHT22;34722;52.108;5.044;2023-06-10T19:36:39;25.30;1.00
48912;DHT22;34722;52.108;5.044;2023-06-10T19:39:05;25.20;1.00
48912;DHT22;34722;52.108;5.044;2023-06-10T19:41:32;25.10;1.00
48912;DHT22;34722;52.108;5.044;2023-06-10T19:43:58;25.00;1.00
48912;DHT22;34722;52.108;5.044;2023-06-10T19:46:24;24.90;1.00
48912;DHT22;34722;52.108;5.044;2023-06-10T19:48:50;24.80;1.00
48912;DHT22;34722;52.108;5.044;2023-06-10T19:51:16;24.70;1.00
48912;DHT22;34722;52.108;5.044;2023-06-10T19:53:45;24.70;1.00
48912;DHT22;34722;52.108;5.044;2023-06-10T19:56:12;24.60;1.00
48912;DHT22;34722;52.108;5.044;2023-06-10T19:58:46;24.50;1.00
48912;DHT22;34722;52.108;5.044;2023-06-10T20:01:12;24.40;1.00
48912;DHT22;34722;52.108;5.044;2023-06-10T20:03:41;24.40;1.00
48912;DHT22;34722;52.108;5.044;2023-06-10T20:06:09;24.30;1.00
48912;DHT22;34722;52.108;5.044;2023-06-10T20:08:36;24.20;1.00
48912;DHT22;34722;52.108;5.044;2023-06-10T20:11:02;24.10;1.00
48912;DHT22;34722;52.108;5.044;2023-06-10T20:13:31;24.00;1.00
48912;DHT22;34722;52.108;5.044;2023-06-10T20:15:57;23.80;1.00
48912;DHT22;34722;52.108;5.044;2023-06-10T20:18:23;23.80;1.00
48912;DHT22;34722;52.108;5.044;2023-06-10T20:20:49;23.70;1.00
48912;DHT22;34722;52.108;5.044;2023-06-10T20:23:15;23.60;1.00
48912;DHT22;34722;52.108;5.044;2023-06-10T20:25:54;23.60;1.00
48912;DHT22;34722;52.108;5.044;2023-06-10T20:28:24;23.50;1.00
48912;DHT22;34722;52.108;5.044;2023-06-10T20:30:52;23.50;1.00
48912;DHT22;34722;52.108;5.044;2023-06-10T20:33:18;23.40;1.00
48912;DHT22;34722;52.108;5.044;2023-06-10T20:35:44;23.30;1.00
48912;DHT22;34722;52.108;5.044;2023-06-10T20:45:03;23.10;1.00
48912;DHT22;34722;52.108;5.044;2023-06-10T20:54:24;22.90;1.00
48912;DHT22;34722;52.108;5.044;2023-06-10T20:57:30;22.80;1.00
48912;DHT22;34722;52.108;5.044;2023-06-10T21:03:26;22.60;1.00
48912;DHT22;34722;52.108;5.044;2023-06-10T21:06:13;22.60;1.00
48912;DHT22;34722;52.108;5.044;2023-06-10T21:15:57;22.50;1.00
48912;DHT22;34722;52.108;5.044;2023-06-10T21:19:32;22.40;1.00
48912;DHT22;34722;52.108;5.044;2023-06-10T21:33:00;22.20;1.00
48912;DHT22;34722;52.108;5.044;2023-06-10T21:35:38;22.10;1.00
48912;DHT22;34722;52.108;5.044;2023-06-10T21:38:17;22.10;1.00